Crew | Aerofun Virtual



 METAR AND TAF INFORMATION
METAR FOR GMMI
ADDS - METARS form results

(1526 UTC 24 May 2019)
Data provider http://aviationweather.gov/metar/data/
 
METAR text: GMMI 241500Z 05013KT 010V110 7000 NSC 33/13 Q1014 NOSIG
Conditions at: GMMI (ESSAOUIRA , MA) observed 1500 UTC 24 May 2019
Temperature: 33.0°C (91°F)
Dewpoint: 13.0°C (55°F) [RH = 30%]
Pressure (altimeter): 29.94 inches Hg (1014.0 mb)
Winds: from the NE (50 degrees) at 15 MPH (13 knots; 6.7 m/s)
Visibility: 4 miles ( 7 km)
Ceiling: at least 12,000 feet AGL
Clouds: sky clear below 12,000 feet AGL
Weather: no significant weather observed at this time

Forecast for: GMMI (ESSAOUIRA , MA)
Text: TAF GMMI 241100Z 2412/2518 01016KT 8000 NSC
Forecast period: 1200 UTC 24 May 2019 to 1800 UTC 25 May 2019
Forecast type: FROM: standard forecast or significant change
Winds: from the N (10 degrees) at 18 MPH (16 knots; 8.2 m/s)
Visibility: 5 miles (8 km)
Ceiling: unknown
Clouds: missing
Weather: no significant weather forecast for this period

 AIRPORT MAP

 RUNWAY INFORMATION
Runway 16 Runway length 6890 ft Runway width 148 ft
Runway elevation 351 ft Runway displaced threshold 0 ft Runway heading 159
Runway 34 Runway length 6890 ft Runway width 148 ft
Runway elevation 421 ft Runway displaced threshold 0 ft Runway heading 339

 AIRPORT FREQUENCIES
Type TWR Name TWR Frequency 121.2 MHZ

 AIRPORT NEAR NAVIGATION AIDS
Type VOR-DME Name Essaouira Frequency 112700 KHZ